createdAt,value
2022-10-15T00:04:24.028Z,62.57
2022-10-15T00:09:22.994Z,62.69
2022-10-15T00:14:21.932Z,63.06
2022-10-15T00:19:22.192Z,63.74
2022-10-15T00:24:21.041Z,63.10
2022-10-15T00:29:19.904Z,62.71
2022-10-15T00:34:18.876Z,62.44
2022-10-15T00:39:20.016Z,62.42
2022-10-15T00:44:52.399Z,62.56
2022-10-15T00:49:58.444Z,63.80
2022-10-15T00:55:03.860Z,63.79
2022-10-15T01:00:09.223Z,63.89
2022-10-15T01:05:11.927Z,63.53
2022-10-15T01:10:14.320Z,63.19
2022-10-15T01:15:18.243Z,63.43
2022-10-15T01:20:45.729Z,63.11
2022-10-15T01:26:02.263Z,63.63
2022-10-15T01:31:08.323Z,63.53
2022-10-15T01:36:17.608Z,64.04
2022-10-15T01:41:23.165Z,64.08
2022-10-15T01:46:33.300Z,64.66
2022-10-15T01:51:39.325Z,64.21
2022-10-15T01:56:39.871Z,63.64
2022-10-15T02:06:45.988Z,64.01
2022-10-15T02:11:57.142Z,63.96
2022-10-15T02:17:04.216Z,63.68
2022-10-15T02:22:10.331Z,63.10
2022-10-15T02:27:12.225Z,63.50
2022-10-15T02:32:14.052Z,63.09
2022-10-15T02:37:14.240Z,63.48
2022-10-15T02:42:17.852Z,63.96
2022-10-15T02:47:18.278Z,63.97
2022-10-15T02:52:17.231Z,64.52
2022-10-15T02:57:16.481Z,64.70
2022-10-15T03:02:19.381Z,64.25
2022-10-15T03:07:19.662Z,64.29
2022-10-15T03:12:21.090Z,64.93
2022-10-15T03:17:21.728Z,64.99
2022-10-15T03:22:21.587Z,64.41
2022-10-15T03:27:26.330Z,64.55
2022-10-15T03:32:27.382Z,64.41
2022-10-15T03:37:26.497Z,64.67
2022-10-15T03:42:27.344Z,64.72
2022-10-15T03:47:27.884Z,64.63
2022-10-15T03:52:28.429Z,63.89
2022-10-15T03:57:27.728Z,63.04
2022-10-15T04:02:36.920Z,63.18
2022-10-15T04:07:35.892Z,63.80
2022-10-15T04:12:35.115Z,63.83
2022-10-15T04:17:39.279Z,64.55
2022-10-15T04:22:39.251Z,64.36
2022-10-15T04:27:40.026Z,64.38
2022-10-15T04:32:46.316Z,63.81
2022-10-15T04:37:45.973Z,64.35
2022-10-15T04:42:45.054Z,63.99
2022-10-15T04:47:46.318Z,63.99
2022-10-15T04:52:47.152Z,64.62
2022-10-15T04:57:46.324Z,65.02
2022-10-15T05:02:47.152Z,64.32
2022-10-15T05:07:53.740Z,64.13
2022-10-15T05:12:56.618Z,64.25
2022-10-15T05:18:04.065Z,64.66
2022-10-15T05:23:12.232Z,64.33
2022-10-15T05:28:13.800Z,64.52
2022-10-15T05:33:14.246Z,64.05
2022-10-15T05:38:13.728Z,64.00
2022-10-15T05:43:13.156Z,63.71
2022-10-15T05:48:13.927Z,63.90
2022-10-15T05:53:13.350Z,62.91
2022-10-15T05:58:16.733Z,62.24
2022-10-15T06:03:17.075Z,62.03
2022-10-15T06:08:16.072Z,61.84
2022-10-15T06:13:16.186Z,61.98
2022-10-15T06:18:17.031Z,61.58
2022-10-15T06:23:15.791Z,61.47
2022-10-15T06:28:14.799Z,61.13
2022-10-15T06:33:16.359Z,60.59
2022-10-15T06:38:16.704Z,60.28
2022-10-15T06:43:46.029Z,59.49
2022-10-15T06:48:47.255Z,58.29
2022-10-15T06:53:48.674Z,57.76
2022-10-15T06:58:47.810Z,57.66
2022-10-15T07:03:52.135Z,56.25
2022-10-15T07:08:52.824Z,55.36
2022-10-15T07:13:52.816Z,54.27
2022-10-15T07:18:52.924Z,53.67
2022-10-15T07:23:53.584Z,53.36
2022-10-15T07:28:53.546Z,53.29
2022-10-15T07:34:04.608Z,52.99
2022-10-15T07:39:05.845Z,52.48
2022-10-15T07:44:07.371Z,51.91
2022-10-15T07:49:06.528Z,51.96
2022-10-15T07:54:07.332Z,52.26
2022-10-15T07:59:06.355Z,52.04
2022-10-15T08:04:06.605Z,51.34
2022-10-15T08:09:08.783Z,50.79
2022-10-15T08:14:07.663Z,50.11
2022-10-15T08:19:06.455Z,50.13
2022-10-15T08:24:05.783Z,50.11
2022-10-15T08:29:08.996Z,50.35
2022-10-15T08:34:08.280Z,50.13
2022-10-15T08:39:09.340Z,49.16
2022-10-15T08:44:17.283Z,48.13
2022-10-15T08:49:28.092Z,47.32
2022-10-15T08:54:36.640Z,45.09
2022-10-15T08:59:42.072Z,43.99
2022-10-15T09:04:49.804Z,41.64
2022-10-15T09:09:52.644Z,41.09
2022-10-15T09:15:01.105Z,39.95
2022-10-15T09:20:07.959Z,39.38
2022-10-15T09:25:17.463Z,39.50
2022-10-15T09:30:34.073Z,38.48
2022-10-15T09:41:16.703Z,36.44
2022-10-15T09:46:17.313Z,34.99
2022-10-15T09:51:27.141Z,33.65
2022-10-15T09:56:33.441Z,33.18
2022-10-15T10:01:34.725Z,34.13
2022-10-15T10:06:33.936Z,33.43
2022-10-15T10:11:49.634Z,33.03
2022-10-15T10:17:18.888Z,32.86
2022-10-15T10:22:20.287Z,32.12
2022-10-15T10:27:45.051Z,31.68
2022-10-15T10:33:02.212Z,31.39
2022-10-15T10:38:03.204Z,30.13
2022-10-15T10:43:13.581Z,29.27
2022-10-15T10:48:23.441Z,27.42
2022-10-15T10:53:24.937Z,27.02
2022-10-15T10:58:27.125Z,26.06
2022-10-15T11:03:37.084Z,24.84
2022-10-15T11:08:42.928Z,25.70
2022-10-15T11:13:58.846Z,24.10
2022-10-15T11:19:19.101Z,25.18
2022-10-15T11:24:48.392Z,23.82
2022-10-15T11:29:56.391Z,24.36
2022-10-15T11:35:24.058Z,23.34
2022-10-15T11:40:41.079Z,23.78
2022-10-15T11:46:00.720Z,22.54
2022-10-15T11:51:08.191Z,22.81
2022-10-15T11:56:14.897Z,22.08
2022-10-15T12:01:20.597Z,22.19
2022-10-15T12:06:31.441Z,21.68
2022-10-15T12:11:41.870Z,20.54
2022-10-15T12:16:55.669Z,19.79
2022-10-15T12:22:11.578Z,20.77
2022-10-15T12:27:22.484Z,21.37
2022-10-15T12:32:26.949Z,22.68
2022-10-15T12:37:29.497Z,25.17
2022-10-15T12:42:31.221Z,26.87
2022-10-15T12:47:49.184Z,27.79
2022-10-15T12:52:59.720Z,29.10
2022-10-15T12:58:06.960Z,29.09
2022-10-15T13:03:39.096Z,29.28
2022-10-15T13:08:45.716Z,30.08
2022-10-15T13:13:46.089Z,30.83
2022-10-15T13:18:51.238Z,30.43
2022-10-15T13:23:52.781Z,29.83
2022-10-15T13:28:52.977Z,30.56
2022-10-15T13:33:55.427Z,30.70
2022-10-15T13:39:00.389Z,30.68
2022-10-15T13:44:01.230Z,30.98
2022-10-15T13:49:02.881Z,31.75
2022-10-15T13:54:08.546Z,32.14
2022-10-15T13:59:07.610Z,32.59
2022-10-15T14:04:17.372Z,32.84
2022-10-15T14:09:23.078Z,33.18
2022-10-15T14:14:34.217Z,33.53
2022-10-15T14:19:35.324Z,33.26
2022-10-15T14:24:39.150Z,33.60
2022-10-15T14:29:41.569Z,33.86
2022-10-15T14:34:42.119Z,34.17
2022-10-15T14:39:42.449Z,33.60
2022-10-15T14:44:46.667Z,32.94
2022-10-15T14:49:59.984Z,32.79
2022-10-15T14:55:11.744Z,32.75
2022-10-15T15:00:17.059Z,32.39
2022-10-15T15:05:23.956Z,32.53
2022-10-15T15:10:39.601Z,32.91
2022-10-15T15:15:42.473Z,32.62
2022-10-15T15:20:43.882Z,32.83
2022-10-15T15:25:44.163Z,33.27
2022-10-15T15:30:45.196Z,33.28
2022-10-15T15:35:51.118Z,33.69
2022-10-15T15:40:52.186Z,33.93
2022-10-15T15:45:51.010Z,34.36
2022-10-15T15:50:50.009Z,34.85
2022-10-15T15:55:51.425Z,35.08
2022-10-15T16:00:51.934Z,35.33
2022-10-15T16:10:50.162Z,35.70
2022-10-15T16:15:49.004Z,36.21
2022-10-15T16:20:49.990Z,36.97
2022-10-15T16:25:48.908Z,37.07
2022-10-15T16:30:47.766Z,37.42
2022-10-15T16:35:54.637Z,37.83
2022-10-15T16:40:53.418Z,38.45
2022-10-15T16:45:59.048Z,38.57
2022-10-15T16:51:03.667Z,39.33
2022-10-15T16:56:06.876Z,39.49
2022-10-15T17:01:07.573Z,39.63
2022-10-15T17:06:12.491Z,40.41
2022-10-15T17:11:17.083Z,40.37
2022-10-15T17:16:17.821Z,40.50
2022-10-15T17:21:22.714Z,41.18
2022-10-15T17:26:25.828Z,40.90
2022-10-15T17:31:26.579Z,41.67
2022-10-15T17:36:29.135Z,41.49
2022-10-15T17:41:33.560Z,41.76
2022-10-15T17:46:37.327Z,41.69
2022-10-15T17:51:38.285Z,41.98
2022-10-15T17:56:40.549Z,42.57
2022-10-15T18:01:59.216Z,42.64
2022-10-15T18:07:00.374Z,43.42
2022-10-15T18:12:01.305Z,43.26
2022-10-15T18:17:02.447Z,43.34
2022-10-15T18:22:02.751Z,43.76
2022-10-15T18:27:01.588Z,43.93
2022-10-15T18:32:00.776Z,43.91
2022-10-15T18:37:02.713Z,43.74
2022-10-15T18:42:01.676Z,44.45
2022-10-15T18:47:01.317Z,44.71
2022-10-15T18:52:15.779Z,45.23
2022-10-15T18:57:25.554Z,45.40
2022-10-15T19:02:28.044Z,45.38
2022-10-15T19:07:31.671Z,45.25
2022-10-15T19:12:31.496Z,45.26
2022-10-15T19:17:32.957Z,46.02
2022-10-15T19:22:33.760Z,46.00
2022-10-15T19:27:33.443Z,46.25
2022-10-15T19:32:32.418Z,46.65
2022-10-15T19:37:42.830Z,47.15
2022-10-15T19:42:42.068Z,47.35
2022-10-15T19:47:40.883Z,49.03
2022-10-15T19:52:42.228Z,48.93
2022-10-15T19:57:41.168Z,49.22
2022-10-15T20:02:39.968Z,48.97
2022-10-15T20:07:38.894Z,49.09
2022-10-15T20:12:39.361Z,49.16
2022-10-15T20:17:38.477Z,50.18
2022-10-15T20:22:37.325Z,50.20
2022-10-15T20:27:36.119Z,49.55
2022-10-15T20:32:37.180Z,50.92
2022-10-15T20:37:36.529Z,50.32
2022-10-15T20:42:37.697Z,51.22
2022-10-15T20:47:41.755Z,52.64
2022-10-15T20:52:43.157Z,53.13
2022-10-15T20:57:42.608Z,52.95
2022-10-15T21:02:43.194Z,52.81
2022-10-15T21:07:42.109Z,52.83
2022-10-15T21:12:41.348Z,51.85
2022-10-15T21:17:41.123Z,51.64
2022-10-15T21:22:59.821Z,51.70
2022-10-15T21:28:05.547Z,52.30
2022-10-15T21:33:07.719Z,51.97
2022-10-15T21:38:08.490Z,51.27
2022-10-15T21:43:09.480Z,51.57
2022-10-15T21:48:11.176Z,53.70
2022-10-15T21:53:11.334Z,53.67
2022-10-15T21:58:10.203Z,53.64
2022-10-15T22:03:09.006Z,53.64
2022-10-15T22:08:07.926Z,53.76
2022-10-15T22:13:08.293Z,53.64
2022-10-15T22:18:07.257Z,53.86
2022-10-15T22:23:06.052Z,53.74
2022-10-15T22:28:04.911Z,53.50
2022-10-15T22:33:05.503Z,54.21
2022-10-15T22:38:04.265Z,54.32
2022-10-15T22:43:04.607Z,54.03
2022-10-15T22:48:05.011Z,53.99
2022-10-15T22:53:04.752Z,54.06
2022-10-15T22:58:06.698Z,53.90
2022-10-15T23:03:07.214Z,53.50
2022-10-15T23:08:06.786Z,53.21
2022-10-15T23:13:05.523Z,53.28
2022-10-15T23:18:04.690Z,53.21
2022-10-15T23:23:05.082Z,53.39
2022-10-15T23:28:04.186Z,53.56
2022-10-15T23:33:03.873Z,53.62
2022-10-15T23:38:04.201Z,53.55
2022-10-15T23:43:03.057Z,54.21
2022-10-15T23:48:01.810Z,54.04
2022-10-15T23:53:00.813Z,54.14
2022-10-15T23:58:01.020Z,53.47
